Edwall, WA (99008)

2:32 AM PDT on August 20, 2014 (GMT -0700)
Fairchild Air Force Base | Change Station
CLOSE
Current Station
Airport
Location: Spokane Fairchild,
Elevation: 2461 ft
Nearby Weather Stations

Elev 2461 ft 47.62 °N, 117.66 °W | Updated 34 minutes ago

Scattered Clouds
Scattered Clouds
63 °F
Feels Like 63 °F
N
4
Wind Variable Wind from South

Today
High -- | Low -- °F
--% Chance of Precip.
Yesterday
High -- | Low -- °F
Precip. -- in
5:54 AM 7:54 PM
Waning Crescent, 23% visible
Pressure 29.68 in
Visibility 10.0 miles
Clouds Scattered Clouds 8500 ft
Dew Point 53 °F
Humidity 70%
Rainfall 0.00 in
Snow Depth Not available.
UV 0 out of 12
Pollen 7.00 out of 12
PM2.5 Moderate
Flu Activity Not available.
METAR KSKA 200858Z AUTO 19003KT 10SM SCT085 17/12 A2972 RMK AO2 LTG DSNT E SLP049 T01700115 50000 $

More Conditions Fewer Conditions

Pressure 29.68 in
Visibility 10.0 miles
Clouds Scattered Clouds 8500 ft
Dew Point 53 °F
Humidity 70%
Rainfall 0.00 in
Snow Depth Not available.
UV 0 out of 12
Pollen 7.00 out of 12
PM2.5 Moderate
Flu Activity Not available.
METAR KSKA 200858Z AUTO 19003KT 10SM SCT085 17/12 A2972 RMK AO2 LTG DSNT E SLP049 T01700115 50000 $

More Conditions Fewer Conditions

10-Day Weather Forecast

Almanac

Astronomy

Aug. 20, 2014 Rise Set
Actual Time 5:54 AM PDT 7:54 PM PDT
Civil Twilight 5:20 AM PDT 8:27 PM PDT
Nautical Twilight 4:39 AM PDT 9:07 PM PDT
Astronomical Twilight 3:54 AM PDT 9:52 PM PDT
Moon 1:30 AM PDT 4:49 PM PDT
Length of Visible Light 15h 06m
Length of Day
14h 00m
Tomorrow will be 3m 10s shorter.
Waning Crescent, 23% of the Moon is Illuminated
Today
Waning Crescent
Aug 25
New
Sep 2
First Quarter
Sep 8
Full
Sep 15
Last Quarter

Today's Extremes

State Highs State Lows

Community

WunderPhotos

Upload Photos

1,745,604 photos uploaded!

Nearby

Air Quality

  Air Quality AQ Index Pollutant
Yesterday Good
PM10
Yesterday Good
OZONE
Current Moderate
PM2.5
Wednesday Good
PM10
Wednesday Good
OZONE

Snow Depth

Station Depth Elevation
Quartz Peak 1 in 4700 ft
Moses Mountain 1 in 5300 ft
Bunchgrass Meadow 0 in 5000 ft
Sourdough Gulch 0 in 4000 ft
Spruce Springs 0 in 5700 ft

Earthquake Activity

City Distance Mag. Time & Date
No recent earthquake activity has been reported nearby.
Minimum magnitude displayed is 2.5.

Coastal Water Temperatures

Place Temperature
No Stations Reporting

Nearby Weather Stations